Paynes Find, Australia
Current Conditions -  °F | °C
As of 2:30 AM on Monday 24 Nov 2014 (Local Time) from YGEL Reporting Station
Clear Clear  
Wind Chill: 57°   Ceiling: Unl
Heat Index: 57°   Visibility: NA
Dew Point: 48°   Wind: 15mph
Humidity: 72%   Direction: 140°SE
Pressure: 30.03"   Gusts: NA
Location:  29.26°S, 117.69°E
Report Text: YGEL 231830Z AUTO 14013KT //// // NCD 14/09 Q1017
Loading
Personal Weather Stations






























Interactive Weather Map New forecast layout! Learn more

10-Day Weather Forecast

Advertisements
Track Severe Weather on mobile